Stiens, Netherlands
Current Conditions -  °F | °C
As of 1:55 PM on Thursday 30 Oct 2014 (Local Time) from EHLW Reporting Station
Haze Haze  
Wind Chill: 54°   Ceiling: 700
Heat Index: 54°   Visibility: 5mi
Dew Point: 52°   Wind: 10mph
Humidity: 94%   Direction: 150°SSE
Pressure: 30.15"   Gusts: NA
Location:  53.26°N, 5.76°E
Report Text: EHLW 301255Z AUTO 15009KT 8000 BR BKN007 OVC008 12/11 Q1021 GRN 15007KT 4000 BR BKN005 TEMPO 2500 BR SCT002 OVC004
Loading
Personal Weather Stations






























Interactive Weather Map
Tropical Storm Tracking
New forecast layout! Learn more

10-Day Weather Forecast

Advertisements
Track Severe Weather on mobile